createdAt,value
2023-02-11T00:00:18.709Z,1.10
2023-02-11T00:02:48.077Z,1.10
2023-02-11T00:05:17.091Z,1.10
2023-02-11T00:07:45.633Z,1.10
2023-02-11T00:10:15.706Z,1.10
2023-02-11T00:12:44.300Z,1.00
2023-02-11T00:15:12.964Z,1.00
2023-02-11T00:17:41.535Z,0.90
2023-02-11T00:20:11.314Z,0.90
2023-02-11T00:22:40.040Z,0.90
2023-02-11T00:25:08.963Z,0.90
2023-02-11T00:27:39.823Z,0.90
2023-02-11T00:30:09.681Z,0.80
2023-02-11T00:32:38.803Z,0.90
2023-02-11T00:35:08.228Z,0.90
2023-02-11T00:37:36.989Z,0.90
2023-02-11T00:40:06.942Z,1.00
2023-02-11T00:42:37.532Z,1.00
2023-02-11T00:45:09.852Z,1.00
2023-02-11T00:47:38.545Z,1.00
2023-02-11T00:50:08.496Z,1.10
2023-02-11T00:52:37.071Z,1.10
2023-02-11T00:55:06.113Z,1.20
2023-02-11T00:57:34.680Z,1.20
2023-02-11T01:00:03.308Z,1.20
2023-02-11T01:02:33.540Z,1.30
2023-02-11T01:05:02.296Z,1.30
2023-02-11T01:07:31.521Z,1.40
2023-02-11T01:10:00.386Z,1.40
2023-02-11T01:12:34.584Z,1.30
2023-02-11T01:15:05.241Z,1.20
2023-02-11T01:17:36.641Z,1.20
2023-02-11T01:20:06.042Z,1.10
2023-02-11T01:22:37.576Z,1.00
2023-02-11T01:25:06.665Z,0.90
2023-02-11T01:27:38.141Z,0.80
2023-02-11T01:30:08.207Z,0.70
2023-02-11T01:32:38.392Z,0.60
2023-02-11T01:35:09.167Z,0.60
2023-02-11T01:37:38.216Z,0.50
2023-02-11T01:40:12.321Z,0.50
2023-02-11T01:42:41.615Z,0.50
2023-02-11T01:45:54.001Z,0.50
2023-02-11T01:48:26.498Z,0.40
2023-02-11T01:51:00.579Z,0.40
2023-02-11T01:53:47.872Z,0.40
2023-02-11T01:56:50.436Z,0.40
2023-02-11T01:59:25.760Z,0.30
2023-02-11T02:02:00.244Z,0.30
2023-02-11T02:04:39.725Z,0.30
2023-02-11T02:07:12.446Z,0.20
2023-02-11T02:09:45.404Z,0.20
2023-02-11T02:12:14.041Z,0.20
2023-02-11T02:14:43.736Z,0.20
2023-02-11T02:17:19.920Z,0.20
2023-02-11T02:20:24.243Z,0.10
2023-02-11T02:23:37.442Z,0.10
2023-02-11T02:26:31.636Z,0.10
2023-02-11T02:29:34.430Z,0.00
2023-02-11T02:32:31.236Z,0.00
2023-02-11T02:35:07.081Z,0.00
2023-02-11T02:37:42.281Z,-0.10
2023-02-11T02:40:16.068Z,-0.10
2023-02-11T02:42:45.877Z,-0.20
2023-02-11T02:45:15.177Z,-0.30
2023-02-11T02:47:45.089Z,-0.30
2023-02-11T02:50:17.740Z,-0.30
2023-02-11T02:52:57.999Z,-0.40
2023-02-11T02:55:42.822Z,-0.40
2023-02-11T02:58:31.701Z,-0.50
2023-02-11T03:01:09.066Z,-0.50
2023-02-11T03:03:50.168Z,-0.50
2023-02-11T03:06:25.116Z,-0.50
2023-02-11T03:08:58.761Z,-0.50
2023-02-11T03:11:28.848Z,-0.50
2023-02-11T03:13:58.713Z,-0.50
2023-02-11T03:16:29.049Z,-0.50
2023-02-11T03:19:04.336Z,-0.50
2023-02-11T03:21:35.297Z,-0.60
2023-02-11T03:24:08.594Z,-0.60
2023-02-11T03:26:41.652Z,-0.60
2023-02-11T03:29:16.684Z,-0.60
2023-02-11T03:31:52.685Z,-0.60
2023-02-11T03:34:29.245Z,-0.60
2023-02-11T03:37:03.009Z,-0.50
2023-02-11T03:39:36.222Z,-0.60
2023-02-11T03:42:07.257Z,-0.50
2023-02-11T03:44:41.311Z,-0.60
2023-02-11T03:47:12.985Z,-0.50
2023-02-11T03:49:44.858Z,-0.50
2023-02-11T03:52:15.511Z,-0.50
2023-02-11T03:54:46.744Z,-0.50
2023-02-11T03:57:15.336Z,-0.50
2023-02-11T03:59:55.804Z,-0.60
2023-02-11T04:02:26.714Z,-0.60
2023-02-11T04:04:56.678Z,-0.60
2023-02-11T04:07:25.465Z,-0.60
2023-02-11T04:09:54.682Z,-0.60
2023-02-11T04:12:23.526Z,-0.60
2023-02-11T04:14:52.107Z,-0.60
2023-02-11T04:17:20.675Z,-0.60
2023-02-11T04:19:49.276Z,-0.60
2023-02-11T04:22:19.209Z,-0.60
2023-02-11T04:24:47.830Z,-0.60
2023-02-11T04:27:16.386Z,-0.60
2023-02-11T04:29:44.948Z,-0.60
2023-02-11T04:32:13.860Z,-0.60
2023-02-11T04:34:42.517Z,-0.60
2023-02-11T04:37:11.138Z,-0.50
2023-02-11T04:39:41.062Z,-0.60
2023-02-11T04:42:09.598Z,-0.60
2023-02-11T04:44:38.147Z,-0.60
2023-02-11T04:47:06.897Z,-0.60
2023-02-11T04:49:35.520Z,-0.60
2023-02-11T04:52:04.035Z,-0.60
2023-02-11T04:54:32.585Z,-0.70
2023-02-11T04:57:02.754Z,-0.70
2023-02-11T04:59:31.451Z,-0.70
2023-02-11T05:02:00.060Z,-0.70
2023-02-11T05:04:28.736Z,-0.70
2023-02-11T05:06:58.713Z,-0.70
2023-02-11T05:09:27.405Z,-0.60
2023-02-11T05:11:55.943Z,-0.60
2023-02-11T05:14:25.889Z,-0.60
2023-02-11T05:16:54.512Z,-0.70
2023-02-11T05:19:23.095Z,-0.60
2023-02-11T05:22:02.114Z,-0.60
2023-02-11T05:24:31.726Z,-0.60
2023-02-11T05:27:00.463Z,-0.50
2023-02-11T05:29:30.481Z,-0.50
2023-02-11T05:32:00.255Z,-0.50
2023-02-11T05:34:28.877Z,-0.50
2023-02-11T05:36:57.725Z,-0.40
2023-02-11T05:39:26.294Z,-0.40
2023-02-11T05:57:33.578Z,-0.30
2023-02-11T06:00:02.132Z,-0.30
2023-02-11T06:02:41.853Z,-0.30
2023-02-11T06:05:11.174Z,-0.30
2023-02-11T06:07:39.769Z,-0.30
2023-02-11T06:10:12.031Z,-0.30
2023-02-11T06:12:42.771Z,-0.30
2023-02-11T06:15:11.472Z,-0.20
2023-02-11T06:17:40.114Z,-0.20
2023-02-11T06:20:10.692Z,-0.10
2023-02-11T06:22:39.562Z,0.10
2023-02-11T06:25:08.720Z,0.20
2023-02-11T06:27:37.280Z,0.20
2023-02-11T06:30:08.659Z,0.30
2023-02-11T06:32:45.859Z,0.40
2023-02-11T06:35:15.203Z,0.40
2023-02-11T06:37:44.194Z,0.60
2023-02-11T06:40:13.574Z,0.70
2023-02-11T06:42:42.557Z,0.80
2023-02-11T06:45:13.416Z,0.90
2023-02-11T06:47:42.626Z,1.00
2023-02-11T06:50:15.233Z,1.10
2023-02-11T06:52:43.809Z,1.30
2023-02-11T06:55:12.469Z,1.40
2023-02-11T06:57:41.121Z,1.50
2023-02-11T07:00:13.401Z,1.60
2023-02-11T07:02:42.032Z,1.80
2023-02-11T07:05:11.233Z,2.00
2023-02-11T07:07:39.795Z,2.20
2023-02-11T07:10:08.816Z,2.40
2023-02-11T07:12:37.505Z,2.60
2023-02-11T07:15:06.688Z,2.70
2023-02-11T07:17:37.536Z,2.80
2023-02-11T07:20:06.798Z,2.90
2023-02-11T07:22:35.845Z,3.00
2023-02-11T07:25:05.236Z,3.00
2023-02-11T07:27:33.930Z,3.10
2023-02-11T07:30:03.412Z,3.20
2023-02-11T07:32:33.448Z,3.20
2023-02-11T07:35:04.036Z,3.20
2023-02-11T07:37:34.353Z,3.30
2023-02-11T07:40:02.962Z,3.30
2023-02-11T07:42:32.214Z,3.30
2023-02-11T07:45:00.814Z,3.40
2023-02-11T07:47:29.708Z,3.50
2023-02-11T07:49:58.240Z,3.50
2023-02-11T07:52:30.952Z,3.60
2023-02-11T07:54:59.524Z,3.60
2023-02-11T07:57:28.165Z,3.70
2023-02-11T07:59:56.759Z,3.80
2023-02-11T08:02:25.429Z,3.80
2023-02-11T08:04:54.059Z,3.80
2023-02-11T08:07:22.766Z,3.90
2023-02-11T08:09:52.760Z,4.00
2023-02-11T08:12:21.310Z,4.00
2023-02-11T08:14:49.849Z,4.10
2023-02-11T08:17:18.415Z,4.10
2023-02-11T08:19:47.194Z,4.10
2023-02-11T08:22:15.785Z,4.10
2023-02-11T08:24:44.484Z,4.10
2023-02-11T08:27:14.427Z,4.10
2023-02-11T08:29:43.091Z,4.20
2023-02-11T08:32:11.696Z,4.20
2023-02-11T08:34:41.376Z,4.30
2023-02-11T08:37:10.204Z,4.30
2023-02-11T08:39:39.038Z,4.30
2023-02-11T08:42:07.685Z,4.40
2023-02-11T08:44:37.723Z,4.50
2023-02-11T08:47:06.476Z,4.50
2023-02-11T08:49:35.282Z,4.50
2023-02-11T08:52:04.329Z,4.50
2023-02-11T08:54:33.352Z,4.50
2023-02-11T08:57:02.454Z,4.50
2023-02-11T08:59:31.190Z,4.50
2023-02-11T09:02:01.135Z,4.50
2023-02-11T09:04:29.741Z,4.50
2023-02-11T09:06:58.829Z,4.50
2023-02-11T09:09:27.401Z,4.50
2023-02-11T09:11:57.474Z,4.60
2023-02-11T09:14:29.452Z,4.60
2023-02-11T09:16:58.679Z,4.60
2023-02-11T09:19:28.740Z,4.60
2023-02-11T09:21:58.870Z,4.80
2023-02-11T09:24:27.483Z,4.90
2023-02-11T09:26:56.038Z,5.00
2023-02-11T09:29:24.640Z,5.10
2023-02-11T09:31:53.337Z,5.20
2023-02-11T09:34:22.043Z,5.30
2023-02-11T09:36:51.974Z,5.30
2023-02-11T09:39:21.401Z,5.20
2023-02-11T09:42:01.773Z,5.20
2023-02-11T09:44:33.429Z,5.20
2023-02-11T09:47:05.689Z,5.20
2023-02-11T09:49:40.430Z,5.20
2023-02-11T09:52:22.867Z,5.20
2023-02-11T09:54:56.654Z,5.20
2023-02-11T09:57:29.266Z,5.30
2023-02-11T09:59:58.503Z,5.30
2023-02-11T10:02:39.961Z,5.30
2023-02-11T10:05:22.920Z,5.40
2023-02-11T10:08:02.498Z,5.40
2023-02-11T10:10:43.401Z,5.40
2023-02-11T10:13:31.201Z,5.60
2023-02-11T10:16:07.081Z,5.70
2023-02-11T10:18:59.646Z,5.60
2023-02-11T10:21:36.063Z,5.60
2023-02-11T10:24:11.881Z,5.60
2023-02-11T10:26:41.893Z,5.50
2023-02-11T10:29:24.443Z,5.50
2023-02-11T10:31:55.386Z,5.50
2023-02-11T10:34:25.791Z,5.50
2023-02-11T10:36:55.325Z,5.60
2023-02-11T10:39:28.818Z,5.60
2023-02-11T10:42:01.856Z,5.50
2023-02-11T10:44:34.672Z,5.60
2023-02-11T10:47:08.492Z,5.60
2023-02-11T10:49:40.843Z,5.50
2023-02-11T10:52:20.066Z,5.50
2023-02-11T10:55:05.619Z,5.50
2023-02-11T10:57:39.732Z,5.50
2023-02-11T11:00:24.205Z,5.40
2023-02-11T11:02:58.098Z,5.40
2023-02-11T11:05:32.703Z,5.40
2023-02-11T11:08:04.267Z,5.40
2023-02-11T11:10:44.373Z,5.40
2023-02-11T11:13:31.145Z,5.40
2023-02-11T11:16:19.248Z,5.50
2023-02-11T11:18:50.021Z,5.50
2023-02-11T11:21:22.607Z,5.60
2023-02-11T11:23:57.461Z,5.60
2023-02-11T11:26:29.402Z,5.60
2023-02-11T11:29:02.328Z,5.70
2023-02-11T11:31:34.663Z,5.70
2023-02-11T11:34:17.185Z,5.70
2023-02-11T11:36:45.852Z,5.80
2023-02-11T11:39:24.090Z,5.80
2023-02-11T11:41:59.388Z,5.70
2023-02-11T11:44:31.865Z,5.70
2023-02-11T11:47:26.578Z,5.60
2023-02-11T11:50:19.009Z,5.60
2023-02-11T11:52:53.919Z,5.60
2023-02-11T11:55:25.934Z,5.60
2023-02-11T11:57:55.952Z,5.60
2023-02-11T12:00:29.535Z,5.70
2023-02-11T12:03:37.499Z,5.70
2023-02-11T12:06:30.021Z,5.70
2023-02-11T12:09:10.230Z,5.70
2023-02-11T12:12:06.841Z,5.60
2023-02-11T12:14:48.119Z,5.70
2023-02-11T12:17:32.769Z,5.70
2023-02-11T12:20:26.817Z,5.70
2023-02-11T12:23:11.017Z,5.70
2023-02-11T12:25:44.964Z,5.60
2023-02-11T12:28:26.944Z,5.60
2023-02-11T12:31:13.392Z,5.50
2023-02-11T12:33:58.029Z,5.50
2023-02-11T12:36:44.022Z,5.50
2023-02-11T12:39:22.632Z,5.40
2023-02-11T12:42:23.966Z,5.50
2023-02-11T12:45:10.273Z,5.40
2023-02-11T12:47:49.481Z,5.40
2023-02-11T12:50:27.743Z,5.40
2023-02-11T12:53:21.525Z,5.40
2023-02-11T12:55:55.211Z,5.40
2023-02-11T12:58:35.594Z,5.40
2023-02-11T13:01:18.064Z,5.50
2023-02-11T13:03:52.465Z,5.50
2023-02-11T13:06:26.057Z,5.60
2023-02-11T13:09:00.228Z,5.60
2023-02-11T13:11:30.909Z,5.70
2023-02-11T13:14:05.513Z,5.70
2023-02-11T13:16:37.885Z,5.70
2023-02-11T13:19:22.654Z,5.70
2023-02-11T13:22:01.604Z,5.70
2023-02-11T13:24:39.566Z,5.80
2023-02-11T13:27:21.219Z,5.80
2023-02-11T13:30:15.218Z,5.70
2023-02-11T13:33:18.956Z,5.70
2023-02-11T13:36:10.908Z,5.70
2023-02-11T13:38:40.328Z,5.60
2023-02-11T13:41:18.261Z,5.60
2023-02-11T13:43:59.402Z,5.60
2023-02-11T13:46:30.453Z,5.60
2023-02-11T13:48:59.685Z,5.60
2023-02-11T13:51:39.530Z,5.60
2023-02-11T13:54:09.679Z,5.60
2023-02-11T13:56:40.719Z,5.60
2023-02-11T13:59:47.576Z,5.50
2023-02-11T14:02:44.040Z,5.50
2023-02-11T14:05:49.041Z,5.50
2023-02-11T14:08:42.573Z,5.40
2023-02-11T14:11:43.947Z,5.40
2023-02-11T14:14:31.937Z,5.40
2023-02-11T14:17:32.134Z,5.40
2023-02-11T14:20:04.255Z,5.30
2023-02-11T14:22:44.423Z,5.30
2023-02-11T14:25:24.895Z,5.30
2023-02-11T14:27:57.967Z,5.30
2023-02-11T14:30:46.145Z,5.30
2023-02-11T14:33:41.463Z,5.20
2023-02-11T14:36:30.962Z,5.20
2023-02-11T14:39:09.604Z,5.20
2023-02-11T14:41:44.287Z,5.20
2023-02-11T14:44:17.470Z,5.10
2023-02-11T14:46:47.288Z,5.10
2023-02-11T14:49:22.627Z,5.10
2023-02-11T14:51:51.267Z,5.10
2023-02-11T14:54:22.911Z,5.10
2023-02-11T14:57:09.148Z,5.20
2023-02-11T14:59:37.975Z,5.20
2023-02-11T15:02:22.991Z,5.20
2023-02-11T15:04:51.737Z,5.20
2023-02-11T15:07:24.127Z,5.20
2023-02-11T15:09:54.961Z,5.10
2023-02-11T15:12:28.218Z,5.10
2023-02-11T15:15:00.231Z,5.00
2023-02-11T15:17:32.959Z,5.00
2023-02-11T15:20:03.060Z,4.90
2023-02-11T15:22:36.878Z,4.80
2023-02-11T15:25:11.726Z,4.70
2023-02-11T15:27:43.828Z,4.70
2023-02-11T15:30:31.690Z,4.60
2023-02-11T15:33:03.185Z,4.60
2023-02-11T15:35:35.229Z,4.60
2023-02-11T15:38:04.745Z,4.50
2023-02-11T15:40:35.374Z,4.40
2023-02-11T15:43:07.753Z,4.40
2023-02-11T15:45:38.782Z,4.30
2023-02-11T15:48:10.847Z,4.30
2023-02-11T15:50:41.408Z,4.30
2023-02-11T15:53:24.973Z,4.30
2023-02-11T15:55:58.496Z,4.20
2023-02-11T15:58:28.701Z,4.20
2023-02-11T16:01:00.023Z,4.20
2023-02-11T16:03:33.077Z,4.20
2023-02-11T16:06:22.357Z,4.20
2023-02-11T16:09:06.349Z,4.10
2023-02-11T16:11:36.749Z,4.10
2023-02-11T16:14:23.675Z,4.10
2023-02-11T16:16:55.033Z,4.10
2023-02-11T16:19:25.936Z,4.10
2023-02-11T16:21:56.289Z,4.10
2023-02-11T16:24:29.626Z,4.10
2023-02-11T16:27:00.917Z,4.10
2023-02-11T16:29:32.560Z,4.10
2023-02-11T16:32:16.954Z,4.10
2023-02-11T16:34:45.854Z,4.00
2023-02-11T16:37:14.616Z,4.00
2023-02-11T16:39:43.224Z,4.00
2023-02-11T16:42:12.965Z,4.00
2023-02-11T16:44:43.099Z,4.00
2023-02-11T16:47:21.197Z,4.00
2023-02-11T16:49:50.022Z,4.00
2023-02-11T16:52:21.943Z,4.00
2023-02-11T16:54:50.848Z,3.90
2023-02-11T16:57:21.690Z,3.90
2023-02-11T16:59:52.045Z,3.90
2023-02-11T17:02:24.372Z,3.90
2023-02-11T17:04:54.505Z,3.90
2023-02-11T17:07:23.225Z,3.90
2023-02-11T17:09:52.932Z,3.90
2023-02-11T17:12:22.001Z,3.90
2023-02-11T17:14:51.988Z,3.90
2023-02-11T17:17:22.091Z,3.90
2023-02-11T17:19:51.247Z,3.90
2023-02-11T17:22:19.938Z,3.90
2023-02-11T17:24:48.501Z,3.90
2023-02-11T17:27:17.321Z,3.90
2023-02-11T17:29:45.928Z,3.90
2023-02-11T17:32:15.905Z,3.90
2023-02-11T17:34:44.623Z,3.90
2023-02-11T17:37:13.294Z,3.90
2023-02-11T17:39:44.759Z,3.90
2023-02-11T17:42:14.901Z,3.90
2023-02-11T17:44:47.309Z,3.90
2023-02-11T17:47:18.520Z,3.90
2023-02-11T17:49:48.325Z,3.90
2023-02-11T18:08:18.054Z,4.00
2023-02-11T18:10:50.671Z,4.10
2023-02-11T18:13:23.656Z,4.10
2023-02-11T18:15:55.653Z,4.10
2023-02-11T18:18:26.197Z,4.10
2023-02-11T18:36:38.937Z,4.20
2023-02-11T18:39:07.558Z,4.20
2023-02-11T18:41:36.221Z,4.30
2023-02-11T18:44:05.145Z,4.30
2023-02-11T18:46:33.769Z,4.30
2023-02-11T18:49:02.346Z,4.30
2023-02-11T18:51:32.483Z,4.30
2023-02-11T18:54:02.476Z,4.40
2023-02-11T18:56:31.118Z,4.40
2023-02-11T18:59:01.465Z,4.40
2023-02-11T19:01:31.307Z,4.40
2023-02-11T19:04:05.441Z,4.50
2023-02-11T19:06:38.101Z,4.40
2023-02-11T19:09:11.268Z,4.50
2023-02-11T19:11:50.939Z,4.50
2023-02-11T19:14:23.125Z,4.50
2023-02-11T19:16:53.393Z,4.50
2023-02-11T19:19:23.275Z,4.50
2023-02-11T19:21:51.989Z,4.60
2023-02-11T19:24:24.023Z,4.60
2023-02-11T19:26:54.161Z,4.60
2023-02-11T19:29:22.735Z,4.60
2023-02-11T19:31:51.606Z,4.70
2023-02-11T19:34:21.476Z,4.70
2023-02-11T19:36:51.149Z,4.80
2023-02-11T19:42:22.634Z,4.80
2023-02-11T19:44:51.309Z,4.80
2023-02-11T19:47:20.132Z,4.90
2023-02-11T19:49:50.827Z,5.00
2023-02-11T19:52:20.731Z,5.00
2023-02-11T19:54:51.947Z,5.10
2023-02-11T19:57:20.520Z,5.10
2023-02-11T19:59:50.976Z,5.10
2023-02-11T20:02:19.673Z,5.10
2023-02-11T20:04:48.310Z,5.10
2023-02-11T20:07:17.088Z,5.10
2023-02-11T20:09:45.818Z,5.10
2023-02-11T20:12:14.461Z,5.10
2023-02-11T20:14:43.041Z,5.20
2023-02-11T20:17:12.988Z,5.20
2023-02-11T20:19:41.563Z,5.20
2023-02-11T20:22:10.134Z,5.20
2023-02-11T20:25:00.291Z,5.20
2023-02-11T20:27:29.558Z,5.10
2023-02-11T20:29:58.204Z,5.10
2023-02-11T20:32:32.815Z,5.10
2023-02-11T20:35:01.506Z,5.10
2023-02-11T20:37:36.372Z,5.10
2023-02-11T21:08:22.934Z,5.10
2023-02-11T21:10:51.485Z,5.10
2023-02-11T21:13:20.000Z,5.10
2023-02-11T21:15:48.548Z,5.10
2023-02-11T21:18:17.143Z,5.10
2023-02-11T21:20:45.807Z,5.00
2023-02-11T21:23:14.357Z,5.10
2023-02-11T21:25:44.380Z,5.10
2023-02-11T21:28:13.345Z,5.00
2023-02-11T21:30:42.738Z,5.00
2023-02-11T21:33:11.484Z,5.00
2023-02-11T21:35:40.171Z,5.00
2023-02-11T21:38:08.898Z,5.00
2023-02-11T22:25:00.202Z,5.10
2023-02-11T22:27:29.037Z,5.10
2023-02-11T22:30:00.832Z,5.10
2023-02-11T22:32:29.438Z,5.10
2023-02-11T22:34:58.070Z,5.10
2023-02-11T22:37:26.642Z,5.10
2023-02-11T22:39:55.225Z,5.10
2023-02-11T22:42:25.254Z,5.10
2023-02-11T22:44:53.879Z,5.10
2023-02-11T22:47:22.473Z,5.20
2023-02-11T22:49:51.016Z,5.20
2023-02-11T22:52:19.588Z,5.10
2023-02-11T22:54:51.573Z,5.20
2023-02-11T22:57:20.121Z,5.20
2023-02-11T22:59:51.180Z,5.20
2023-02-11T23:02:19.892Z,5.20
2023-02-11T23:04:49.983Z,5.20
2023-02-11T23:07:18.711Z,5.20
2023-02-11T23:09:47.257Z,5.20
2023-02-11T23:12:15.801Z,5.20
2023-02-11T23:14:44.676Z,5.20
2023-02-11T23:17:14.682Z,5.20
2023-02-11T23:19:43.291Z,5.20
2023-02-11T23:22:19.087Z,5.20
2023-02-11T23:24:47.622Z,5.20
2023-02-11T23:27:16.128Z,5.20
2023-02-11T23:29:44.648Z,5.20
2023-02-11T23:32:14.674Z,5.20
2023-02-11T23:34:43.319Z,5.20
2023-02-11T23:37:12.331Z,5.20
2023-02-11T23:39:40.911Z,5.20
2023-02-11T23:42:09.441Z,5.20
2023-02-11T23:44:38.100Z,5.20
2023-02-11T23:47:06.695Z,5.20
2023-02-11T23:49:36.595Z,5.20
2023-02-11T23:54:48.315Z,5.20
2023-02-11T23:57:16.906Z,5.20
2023-02-11T23:59:45.452Z,5.20
